John Henry — WDH7347 — position and weather

sailwx.info

Track history (hours):
 
Tides and Currents Weather Stations Pressure Air Temp Water Temp Dewpoint Dewpoint Depression Visibility Wind Speed Wind Dir Waves Ship Positions

John Henry

Owner: So. Cal. Ship Services, Inc., Long Beach, CA. More information available from US FCC via Universal Licensing System and Coast Guard Vessel Documentation Center.

Last reported at 2018-Jun-23 01:01 UTC. Time now 2018-Jun-25 15:44 UTC.
Position N 33°44' W 118°16'.

; draft 2.5 m.

Type: . MMSI: 367647270.

Date/timePositionNaut miles runAvg speedWind from/ knotsBaromVisibWave heightAir tempDewpointWater temp
2018-Jun-23 01:01N 33°44' W 118°16'0 0.0
2018-Jun-23 01:00N 33°44' W 118°16'0 0.0
2018-Jun-23 00:29N 33°44' W 118°16'3 6.7
2018-Jun-23 00:00N 33°44' W 118°12'510.0
2018-Jun-22 23:30N 33°42' W 118°07'2 2.2
2018-Jun-22 22:35N 33°41' W 118°05'211.5
2018-Jun-22 22:25N 33°41' W 118°07'511.0
2018-Jun-22 22:00N 33°44' W 118°12'4 7.6
2018-Jun-22 21:30N 33°44' W 118°16'0 0.0
2018-Jun-22 18:37N 33°44' W 118°16'0 0.0
2018-Jun-22 18:18N 33°44' W 118°16'0 0.0
2018-Jun-22 18:00N 33°44' W 118°16'2 3.1
2018-Jun-22 17:30N 33°43' W 118°15'5 9.8
2018-Jun-22 17:00N 33°43' W 118°09'  
2018-Jun-15 00:18N 33°44' W 118°16'  
Track history (hours):
 
Tides and Currents Weather Stations Pressure Air Temp Water Temp Dewpoint Dewpoint Depression Visibility Wind Speed Wind Dir Waves Ship Positions

John Henry

Owner: So. Cal. Ship Services, Inc., Long Beach, CA. More information available from US FCC via Universal Licensing System and Coast Guard Vessel Documentation Center.

Last reported at 2018-Jun-23 01:01 UTC. Time now 2018-Jun-25 15:44 UTC.
Position N 33°44' W 118°16'.

; draft 2.5 m.

Type: . MMSI: 367647270.

Date/timePositionNaut miles runAvg speedWind from/ knotsBaromVisibWave heightAir tempDewpointWater temp
2018-Jun-23 01:01N 33°44' W 118°16'0 0.0
2018-Jun-23 01:00N 33°44' W 118°16'0 0.0
2018-Jun-23 00:29N 33°44' W 118°16'3 6.7
2018-Jun-23 00:00N 33°44' W 118°12'510.0
2018-Jun-22 23:30N 33°42' W 118°07'2 2.2
2018-Jun-22 22:35N 33°41' W 118°05'211.5
2018-Jun-22 22:25N 33°41' W 118°07'511.0
2018-Jun-22 22:00N 33°44' W 118°12'4 7.6
2018-Jun-22 21:30N 33°44' W 118°16'0 0.0
2018-Jun-22 18:37N 33°44' W 118°16'0 0.0
2018-Jun-22 18:18N 33°44' W 118°16'0 0.0
2018-Jun-22 18:00N 33°44' W 118°16'2 3.1
2018-Jun-22 17:30N 33°43' W 118°15'5 9.8
2018-Jun-22 17:00N 33°43' W 118°09'  
2018-Jun-15 00:18N 33°44' W 118°16'  

Dump ship's entire track history